Time;durP1;ratioP1;P1;durP2;ratioP2;P2;SDS_P1;SDS_P2;PMS_P1;PMS_P2;Temp;Humidity;BMP_temperature;BMP_pressure;BME280_temperature;BME280_humidity;BME280_pressure;Samples;Min_cycle;Max_cycle;Signal;HPM_P1;HPM_P2
2022/08/07 00:00:29;;;;;;;;;;;;;;;28.53;28.87;101931.13;4418387;32;19976;-68
2022/08/07 00:02:55;;;;;;;;;;;;;;;28.54;28.67;101930.56;4417456;32;19953;-68
2022/08/07 00:05:21;;;;;;;;;;;;;;;28.60;28.70;101933.44;4417442;32;19994;-68
2022/08/07 00:07:47;;;;;;;;;;;;;;;28.63;28.78;101930.22;4417238;32;19970;-68
2022/08/07 00:10:13;;;;;;;;;;;;;;;28.59;28.63;101926.06;4407910;32;20362;-68
2022/08/07 00:12:39;;;;;;;;;;;;;;;28.50;29.00;101923.50;4417071;32;20453;-68
2022/08/07 00:15:04;;;;;;;;;;;;;;;28.37;29.07;101926.94;4415371;32;20004;-68
2022/08/07 00:17:30;;;;;;;;;;;;;;;28.25;29.17;101928.31;4417196;32;20000;-68
2022/08/07 00:19:55;;;;;;;;;;;;;;;28.20;29.15;101923.38;4414369;32;20008;-68
2022/08/07 00:22:21;;;;;;;;;;;;;;;28.17;29.35;101924.44;4419457;32;19964;-68
2022/08/07 00:24:47;;;;;;;;;;;;;;;28.22;29.31;101917.81;4414555;32;19976;-68
2022/08/07 00:27:13;;;;;;;;;;;;;;;28.20;29.32;101917.59;4415605;32;19965;-68
2022/08/07 00:29:39;;;;;;;;;;;;;;;28.24;29.25;101915.19;4418087;32;20445;-68
2022/08/07 00:32:05;;;;;;;;;;;;;;;28.20;29.36;101922.56;4419214;32;19993;-68
2022/08/07 00:34:31;;;;;;;;;;;;;;;28.13;29.46;101912.31;4416480;32;20052;-68
2022/08/07 00:36:57;;;;;;;;;;;;;;;28.11;29.46;101919.97;4418345;32;19957;-68
2022/08/07 00:39:22;;;;;;;;;;;;;;;28.07;29.53;101920.25;4417208;32;19985;-68
2022/08/07 00:41:49;;;;;;;;;;;;;;;28.32;29.19;101907.50;4418935;32;19950;-68
2022/08/07 00:44:15;;;;;;;;;;;;;;;28.17;29.12;101921.53;4415439;32;19968;-68
2022/08/07 00:46:41;;;;;;;;;;;;;;;28.22;29.25;101914.91;4418201;32;20630;-68
2022/08/07 00:49:08;;;;;;;;;;;;;;;28.30;29.24;101913.03;4416966;32;19961;-68
2022/08/07 00:51:33;;;;;;;;;;;;;;;28.01;29.67;101912.94;4417452;32;19981;-68
2022/08/07 00:54:02;;;;;;;;;;;;;;;28.00;29.68;101903.44;4417068;32;20335;-68
2022/08/07 00:56:28;;;;;;;;;;;;;;;27.83;30.07;101902.72;4416920;32;19954;-68
2022/08/07 00:58:54;;;;;;;;;;;;;;;28.00;29.70;101900.56;4417949;32;19993;-68
2022/08/07 01:01:20;;;;;;;;;;;;;;;27.71;30.03;101904.06;4416259;32;20005;-68
2022/08/07 01:03:46;;;;;;;;;;;;;;;27.76;30.19;101908.25;4413645;32;19961;-68
2022/08/07 01:06:11;;;;;;;;;;;;;;;27.93;29.94;101912.69;4416371;32;19969;-68
2022/08/07 01:08:38;;;;;;;;;;;;;;;28.06;29.81;101906.31;4415489;32;20027;-68
2022/08/07 01:11:04;;;;;;;;;;;;;;;28.10;29.66;101906.84;4416959;32;20385;-68
2022/08/07 01:13:30;;;;;;;;;;;;;;;28.22;29.56;101909.13;4416237;32;19993;-68
2022/08/07 01:15:57;;;;;;;;;;;;;;;28.18;29.60;101907.84;4417808;32;20409;-68
2022/08/07 01:18:23;;;;;;;;;;;;;;;28.10;29.77;101903.94;4418532;32;20512;-68
2022/08/07 01:20:52;;;;;;;;;;;;;;;28.10;29.61;101909.72;4416064;32;19981;-68
2022/08/07 01:23:19;;;;;;;;;;;;;;;28.30;29.52;101903.56;4416389;32;20475;-68
2022/08/07 01:25:45;;;;;;;;;;;;;;;28.30;29.56;101887.00;4415682;32;19992;-68
2022/08/07 01:28:10;;;;;;;;;;;;;;;28.28;29.53;101888.81;4417690;32;20438;-68
2022/08/07 01:30:37;;;;;;;;;;;;;;;28.06;29.80;101894.72;4415215;32;20003;-68
2022/08/07 01:33:03;;;;;;;;;;;;;;;28.26;29.42;101880.66;4413850;32;20022;-68
2022/08/07 01:35:30;;;;;;;;;;;;;;;27.96;29.97;101887.69;4418141;32;20008;-68
2022/08/07 01:37:55;;;;;;;;;;;;;;;28.14;29.65;101884.19;4414447;32;20007;-68
2022/08/07 01:40:22;;;;;;;;;;;;;;;27.97;30.04;101892.94;4413397;32;19961;-68
2022/08/07 01:42:48;;;;;;;;;;;;;;;27.94;30.17;101894.00;4414755;32;20202;-68
2022/08/07 01:45:14;;;;;;;;;;;;;;;28.00;30.24;101891.88;4416216;32;20007;-68
2022/08/07 01:47:40;;;;;;;;;;;;;;;28.05;29.98;101893.97;4415695;32;19993;-68
2022/08/07 01:50:05;;;;;;;;;;;;;;;27.95;30.10;101889.00;4414974;32;19991;-68
2022/08/07 01:52:33;;;;;;;;;;;;;;;28.01;30.11;101873.19;4417113;32;19950;-68
2022/08/07 01:55:00;;;;;;;;;;;;;;;27.84;30.46;101872.44;4414977;32;20245;-67
2022/08/07 01:57:27;;;;;;;;;;;;;;;27.95;30.22;101877.44;4417575;32;19957;-67
2022/08/07 02:00:01;;;;;;;;;;;;;;;27.71;30.42;101872.25;4415540;32;20184;-68
2022/08/07 02:02:30;;;;;;;;;;;;;;;27.85;30.23;101862.44;4418675;32;20787;-68
2022/08/07 02:05:01;;;;;;;;;;;;;;;27.69;30.19;101871.19;4414887;32;19953;-68
2022/08/07 02:07:29;;;;;;;;;;;;;;;27.62;30.14;101869.66;4415967;32;19977;-68
2022/08/07 02:09:56;;;;;;;;;;;;;;;27.59;30.65;101861.25;4414657;32;20359;-68
2022/08/07 02:12:23;;;;;;;;;;;;;;;27.50;30.81;101862.31;4415416;32;20008;-68
2022/08/07 02:14:51;;;;;;;;;;;;;;;27.57;30.99;101852.28;4417021;32;19998;-68
2022/08/07 02:17:17;;;;;;;;;;;;;;;27.72;30.79;101855.66;4414769;32;19945;-68
2022/08/07 02:19:45;;;;;;;;;;;;;;;27.77;30.76;101858.56;4414302;32;20008;-68
2022/08/07 02:22:13;;;;;;;;;;;;;;;27.86;30.71;101851.69;4414627;32;20367;-68
2022/08/07 02:24:40;;;;;;;;;;;;;;;28.05;30.30;101852.66;4415601;32;20535;-68
2022/08/07 02:27:07;;;;;;;;;;;;;;;28.06;30.29;101848.44;4415873;32;19991;-68
2022/08/07 02:29:33;;;;;;;;;;;;;;;27.75;30.85;101843.81;4415960;32;20346;-68
2022/08/07 02:31:59;;;;;;;;;;;;;;;27.70;30.72;101843.84;4414814;32;20023;-68
2022/08/07 02:34:26;;;;;;;;;;;;;;;27.84;30.60;101842.72;4416716;32;20036;-68
2022/08/07 02:36:51;;;;;;;;;;;;;;;27.74;30.75;101845.16;4418423;32;20016;-67
2022/08/07 02:39:18;;;;;;;;;;;;;;;27.82;30.69;101842.50;4414148;32;19953;-67
2022/08/07 02:41:44;;;;;;;;;;;;;;;27.55;30.98;101832.56;4414739;32;19954;-67
2022/08/07 02:44:10;;;;;;;;;;;;;;;27.83;30.42;101838.28;4415550;32;19982;-68
2022/08/07 02:46:36;;;;;;;;;;;;;;;27.82;30.51;101834.56;4420300;32;19993;-68
2022/08/07 02:49:02;;;;;;;;;;;;;;;27.88;30.53;101825.88;4418156;32;20049;-68
2022/08/07 02:51:31;;;;;;;;;;;;;;;27.89;30.55;101839.81;4419958;32;19949;-68
2022/08/07 02:53:58;;;;;;;;;;;;;;;27.78;30.74;101831.19;4417355;32;19958;-68
2022/08/07 02:56:26;;;;;;;;;;;;;;;27.85;30.65;101832.75;4415983;32;20004;-67
2022/08/07 02:58:52;;;;;;;;;;;;;;;27.86;30.63;101838.03;4416608;32;19965;-67
2022/08/07 03:01:21;;;;;;;;;;;;;;;27.92;30.58;101832.19;4414363;32;19954;-68
2022/08/07 03:03:48;;;;;;;;;;;;;;;27.78;30.77;101827.50;4421181;32;20388;-67
2022/08/07 03:06:16;;;;;;;;;;;;;;;27.45;31.30;101831.31;4417643;32;20339;-67
2022/08/07 03:08:41;;;;;;;;;;;;;;;27.52;31.15;101832.88;4417265;32;20479;-67
2022/08/07 03:11:07;;;;;;;;;;;;;;;27.75;30.96;101825.66;4418278;32;19950;-67
2022/08/07 03:13:33;;;;;;;;;;;;;;;27.76;30.92;101830.16;4417264;32;20369;-68
2022/08/07 03:15:59;;;;;;;;;;;;;;;27.62;31.08;101828.38;4417943;32;19970;-68
2022/08/07 03:18:26;;;;;;;;;;;;;;;27.59;31.05;101827.34;4414752;32;19968;-68
2022/08/07 03:20:52;;;;;;;;;;;;;;;27.43;31.22;101821.59;4418680;32;19994;-68
2022/08/07 03:23:18;;;;;;;;;;;;;;;27.29;31.62;101814.00;4416512;32;20005;-67
2022/08/07 03:25:45;;;;;;;;;;;;;;;27.27;31.43;101819.56;4417034;32;20001;-67
2022/08/07 03:28:12;;;;;;;;;;;;;;;27.29;31.21;101823.47;4419330;32;20026;-67
2022/08/07 03:30:38;;;;;;;;;;;;;;;27.46;31.18;101820.53;4415907;32;19972;-67
2022/08/07 03:33:04;;;;;;;;;;;;;;;27.42;31.19;101820.03;4417646;32;20036;-67
2022/08/07 03:35:30;;;;;;;;;;;;;;;27.44;31.12;101823.16;4419174;32;20180;-67
2022/08/07 03:37:57;;;;;;;;;;;;;;;27.41;31.20;101832.91;4418992;32;20406;-67
2022/08/07 03:40:24;;;;;;;;;;;;;;;27.36;31.30;101830.81;4416399;32;20287;-67
2022/08/07 03:42:50;;;;;;;;;;;;;;;27.25;31.40;101834.53;4417874;32;20015;-67
2022/08/07 03:45:17;;;;;;;;;;;;;;;27.24;31.18;101827.16;4416946;32;19952;-67
2022/08/07 03:47:42;;;;;;;;;;;;;;;27.16;31.26;101834.78;4417515;32;20022;-67
2022/08/07 03:50:08;;;;;;;;;;;;;;;27.45;31.04;101837.09;4415641;32;19994;-67
2022/08/07 03:52:34;;;;;;;;;;;;;;;27.55;30.81;101837.59;4419854;32;20056;-67
2022/08/07 03:55:00;;;;;;;;;;;;;;;27.48;31.02;101832.38;4416135;32;20013;-67
2022/08/07 03:57:26;;;;;;;;;;;;;;;27.31;31.25;101834.50;4413557;32;19973;-67
2022/08/07 03:59:53;;;;;;;;;;;;;;;27.38;31.07;101833.97;4414960;32;19999;-67
2022/08/07 04:02:22;;;;;;;;;;;;;;;27.46;31.03;101838.69;4420070;32;20461;-67
2022/08/07 04:04:47;;;;;;;;;;;;;;;27.05;31.61;101832.69;4415013;32;20016;-68
2022/08/07 04:07:15;;;;;;;;;;;;;;;27.22;31.24;101830.53;4417252;32;19993;-68
2022/08/07 04:09:41;;;;;;;;;;;;;;;27.20;31.38;101823.72;4418494;32;19984;-68
2022/08/07 04:12:06;;;;;;;;;;;;;;;27.04;31.34;101825.34;4418970;32;20744;-68
2022/08/07 04:14:33;;;;;;;;;;;;;;;27.15;31.32;101818.75;4414705;32;19973;-68
2022/08/07 04:16:58;;;;;;;;;;;;;;;26.98;31.71;101820.88;4416522;32;20441;-67
2022/08/07 04:19:24;;;;;;;;;;;;;;;26.97;31.35;101819.31;4414693;32;20000;-67
2022/08/07 04:21:51;;;;;;;;;;;;;;;26.68;32.15;101803.31;4418113;32;20020;-67
2022/08/07 04:24:18;;;;;;;;;;;;;;;26.87;31.76;101806.44;4418076;32;19997;-68
2022/08/07 04:26:44;;;;;;;;;;;;;;;26.82;31.94;101804.38;4415667;32;20004;-68
2022/08/07 04:29:10;;;;;;;;;;;;;;;26.74;32.07;101809.09;4417015;32;20009;-68
2022/08/07 04:31:37;;;;;;;;;;;;;;;26.58;32.09;101806.97;4414971;32;20334;-67
2022/08/07 04:34:02;;;;;;;;;;;;;;;26.26;32.54;101803.53;4414063;32;19999;-67
2022/08/07 04:36:28;;;;;;;;;;;;;;;26.77;31.87;101803.06;4418639;32;20365;-67
2022/08/07 04:38:53;;;;;;;;;;;;;;;26.78;31.71;101800.94;4415338;32;19971;-67
2022/08/07 04:41:19;;;;;;;;;;;;;;;26.66;32.08;101799.41;4414995;32;20027;-67
2022/08/07 04:43:45;;;;;;;;;;;;;;;26.67;31.87;101798.06;4419641;32;19993;-67
2022/08/07 04:46:16;;;;;;;;;;;;;;;26.71;32.00;101799.37;4414277;32;20202;-67
2022/08/07 04:48:56;;;;;;;;;;;;;;;26.26;32.52;101797.00;4414607;32;20016;-67
2022/08/07 04:54:31;;;;;;;;;;;;;;;26.83;31.90;101800.16;3967153;31;15827373;-68
2022/08/07 04:59:42;;;;;;;;;;;;;;;27.04;31.62;101799.34;3971896;31;15720139;-68
2022/08/07 05:02:16;;;;;;;;;;;;;;;27.04;31.62;101799.34;4453203;32;19953;-68
2022/08/07 05:04:48;;;;;;;;;;;;;;;26.32;32.40;101794.91;4446367;32;19953;-68
2022/08/07 05:07:17;;;;;;;;;;;;;;;25.99;32.87;101798.50;4450031;32;19988;-68
2022/08/07 05:09:52;;;;;;;;;;;;;;;26.07;32.68;101799.56;4449837;32;19989;-68
2022/08/07 05:12:21;;;;;;;;;;;;;;;25.64;33.51;101789.44;4450934;32;19977;-68
2022/08/07 05:14:47;;;;;;;;;;;;;;;25.91;33.20;101799.50;4448563;32;20021;-68
2022/08/07 05:17:14;;;;;;;;;;;;;;;26.05;33.02;101799.28;4451136;32;20377;-68
2022/08/07 05:19:42;;;;;;;;;;;;;;;25.86;33.35;101800.28;4450568;32;20000;-68
2022/08/07 05:22:12;;;;;;;;;;;;;;;26.11;32.71;101802.97;4450730;32;20443;-68
2022/08/07 05:24:40;;;;;;;;;;;;;;;26.28;32.56;101795.13;4448568;32;20619;-68
2022/08/07 05:27:07;;;;;;;;;;;;;;;26.10;32.49;101789.87;4450822;32;20596;-68
2022/08/07 05:29:36;;;;;;;;;;;;;;;26.27;32.45;101798.56;4450925;32;19968;-67
2022/08/07 05:32:01;;;;;;;;;;;;;;;26.46;32.43;101797.53;4450618;32;20037;-68
2022/08/07 05:34:28;;;;;;;;;;;;;;;26.55;32.28;101794.38;4450730;32;19948;-68
2022/08/07 05:36:54;;;;;;;;;;;;;;;26.66;32.09;101797.28;4448635;32;19996;-68
2022/08/07 05:39:21;;;;;;;;;;;;;;;26.86;31.77;101797.00;4448027;32;19957;-68
2022/08/07 05:41:47;;;;;;;;;;;;;;;27.15;31.15;101807.97;4449480;32;19989;-68
2022/08/07 05:44:16;;;;;;;;;;;;;;;27.35;31.01;101812.69;4448985;32;19953;-68
2022/08/07 05:46:42;;;;;;;;;;;;;;;27.28;31.04;101798.78;4449852;32;19957;-68
2022/08/07 05:49:08;;;;;;;;;;;;;;;27.43;31.00;101796.37;4447368;32;20140;-68
2022/08/07 05:51:37;;;;;;;;;;;;;;;27.61;30.69;101798.66;4450785;32;20424;-68
2022/08/07 05:54:02;;;;;;;;;;;;;;;27.62;30.75;101797.34;4448550;32;19948;-68
2022/08/07 05:56:28;;;;;;;;;;;;;;;27.97;30.27;101799.53;4449494;32;19972;-68
2022/08/07 05:58:54;;;;;;;;;;;;;;;28.43;29.93;101811.06;4445720;32;20089;-68
2022/08/07 06:01:21;;;;;;;;;;;;;;;28.57;29.70;101818.62;4449198;32;20121;-68
2022/08/07 06:03:47;;;;;;;;;;;;;;;28.75;29.38;101818.72;4444922;32;19988;-68
2022/08/07 06:06:14;;;;;;;;;;;;;;;29.10;28.92;101820.00;4447917;32;19957;-68
2022/08/07 06:08:40;;;;;;;;;;;;;;;29.30;28.76;101822.44;4448214;32;19969;-68
2022/08/07 06:11:06;;;;;;;;;;;;;;;29.16;28.84;101817.84;4438674;32;19953;-68
2022/08/07 06:13:31;;;;;;;;;;;;;;;29.00;29.16;101816.66;4435538;32;20014;-68
2022/08/07 06:15:57;;;;;;;;;;;;;;;28.80;29.25;101817.09;4440878;32;20376;-68
2022/08/07 06:18:23;;;;;;;;;;;;;;;29.18;29.01;101809.37;4439352;32;20008;-68
2022/08/07 06:20:49;;;;;;;;;;;;;;;29.24;28.89;101807.22;4437667;32;19945;-68
2022/08/07 06:23:15;;;;;;;;;;;;;;;29.11;29.11;101802.06;4435743;32;19981;-68
2022/08/07 06:25:41;;;;;;;;;;;;;;;29.30;29.00;101802.13;4435801;32;19965;-68
2022/08/07 06:28:07;;;;;;;;;;;;;;;29.39;28.95;101798.88;4439673;32;20035;-68
2022/08/07 06:30:33;;;;;;;;;;;;;;;29.52;28.82;101807.66;4438662;32;19984;-68
2022/08/07 06:33:00;;;;;;;;;;;;;;;29.50;28.98;101799.53;4436275;32;19990;-68
2022/08/07 06:35:26;;;;;;;;;;;;;;;29.88;28.60;101814.88;4439322;32;19949;-68
2022/08/07 06:37:52;;;;;;;;;;;;;;;30.08;28.23;101806.41;4439678;32;19975;-68
2022/08/07 06:40:18;;;;;;;;;;;;;;;30.04;28.45;101805.16;4440216;32;19957;-68
2022/08/07 06:42:45;;;;;;;;;;;;;;;30.01;28.39;101812.06;4435133;32;20056;-68
2022/08/07 06:45:12;;;;;;;;;;;;;;;30.03;28.39;101813.06;4435114;32;19954;-68
2022/08/07 06:47:38;;;;;;;;;;;;;;;29.91;28.70;101819.59;4437021;32;20001;-68
2022/08/07 06:50:04;;;;;;;;;;;;;;;29.73;28.79;101812.41;4437705;32;20003;-68
2022/08/07 06:52:31;;;;;;;;;;;;;;;30.01;28.49;101812.06;4436458;32;19945;-68
2022/08/07 06:54:59;;;;;;;;;;;;;;;30.42;28.03;101821.22;4436284;32;19993;-68
2022/08/07 06:57:25;;;;;;;;;;;;;;;30.71;27.75;101821.00;4439258;32;20000;-68
2022/08/07 06:59:51;;;;;;;;;;;;;;;30.45;28.12;101820.13;4437118;32;19996;-68
2022/08/07 07:02:19;;;;;;;;;;;;;;;30.50;27.74;101819.25;4435306;32;19961;-68
2022/08/07 07:04:45;;;;;;;;;;;;;;;30.83;27.47;101819.50;4433583;32;20330;-68
2022/08/07 07:07:11;;;;;;;;;;;;;;;30.31;28.11;101815.59;4437329;32;20024;-68
2022/08/07 07:09:37;;;;;;;;;;;;;;;30.35;28.11;101819.75;4437693;32;20343;-68
2022/08/07 07:14:43;;;;;;;;;;;;;;;30.95;27.66;101828.78;3963233;31;15718020;-67
2022/08/07 07:17:13;;;;;;;;;;;;;;;30.95;27.66;101828.78;4429951;32;20000;-68
2022/08/07 07:19:42;;;;;;;;;;;;;;;30.41;28.32;101819.66;4435694;32;19953;-68
2022/08/07 07:22:08;;;;;;;;;;;;;;;30.66;28.06;101821.09;4431010;32;19953;-68
2022/08/07 07:24:35;;;;;;;;;;;;;;;30.83;27.74;101825.31;4432670;32;19985;-68
2022/08/07 07:27:02;;;;;;;;;;;;;;;31.39;27.42;101830.13;4433098;32;20022;-68
2022/08/07 07:29:31;;;;;;;;;;;;;;;31.45;27.53;101840.31;4431898;32;20378;-68
2022/08/07 07:31:58;;;;;;;;;;;;;;;31.03;28.56;101841.34;4431578;32;20035;-68
2022/08/07 07:34:27;;;;;;;;;;;;;;;31.19;28.16;101839.47;4431415;32;20017;-68
2022/08/07 07:36:54;;;;;;;;;;;;;;;31.50;28.03;101841.56;4431293;32;19961;-68
2022/08/07 07:39:21;;;;;;;;;;;;;;;31.81;27.65;101843.53;4436886;32;20026;-68
2022/08/07 07:41:48;;;;;;;;;;;;;;;31.64;27.70;101848.91;4434537;32;19969;-68
2022/08/07 07:44:15;;;;;;;;;;;;;;;32.11;26.98;101846.84;4432151;32;19945;-68
2022/08/07 07:46:41;;;;;;;;;;;;;;;31.83;27.51;101853.31;4435401;32;19964;-68
2022/08/07 07:49:08;;;;;;;;;;;;;;;32.69;26.32;101856.09;4435021;32;19977;-68
2022/08/07 07:51:35;;;;;;;;;;;;;;;33.06;25.85;101854.88;4431642;32;19994;-68
2022/08/07 07:54:02;;;;;;;;;;;;;;;32.53;26.33;101852.25;4431256;32;20693;-68
2022/08/07 07:56:29;;;;;;;;;;;;;;;32.65;26.33;101858.59;4433198;32;20312;-68
2022/08/07 07:58:54;;;;;;;;;;;;;;;32.13;27.14;101850.00;4434545;32;20252;-68
2022/08/07 08:01:21;;;;;;;;;;;;;;;32.53;26.56;101857.28;4434140;32;19992;-68
2022/08/07 08:03:48;;;;;;;;;;;;;;;32.92;25.98;101862.97;4434522;32;19949;-68
2022/08/07 08:06:13;;;;;;;;;;;;;;;32.57;26.25;101863.53;4430650;32;19950;-68
2022/08/07 08:08:40;;;;;;;;;;;;;;;32.19;26.97;101854.34;4431238;32;20007;-68
2022/08/07 08:11:07;;;;;;;;;;;;;;;32.94;26.03;101853.66;4432831;32;19957;-68
2022/08/07 08:13:34;;;;;;;;;;;;;;;32.50;26.46;101856.28;4432140;32;20221;-68
2022/08/07 08:16:02;;;;;;;;;;;;;;;32.56;26.55;101850.31;4433391;32;19992;-68
2022/08/07 08:18:28;;;;;;;;;;;;;;;32.66;26.25;101842.66;4431538;32;20018;-68
2022/08/07 08:20:55;;;;;;;;;;;;;;;33.00;26.11;101851.38;4432765;32;20404;-68
2022/08/07 08:28:54;;;;;;;;;;;;;;;33.76;24.98;101839.66;4420723;32;19992;-68
2022/08/07 08:31:22;;;;;;;;;;;;;;;33.57;25.04;101838.38;4420456;32;20012;-68
2022/08/07 08:33:50;;;;;;;;;;;;;;;33.47;25.06;101826.44;4424714;32;20001;-68
2022/08/07 08:36:18;;;;;;;;;;;;;;;33.05;25.73;101827.09;4422098;32;19969;-68
2022/08/07 08:38:45;;;;;;;;;;;;;;;32.90;26.20;101826.94;4422185;32;19967;-68
2022/08/07 08:46:47;;;;;;;;;;;;;;;33.56;25.11;101822.22;3953109;32;15722641;-69
2022/08/07 08:49:25;;;;;;;;;;;;;;;33.56;25.11;101822.22;4431353;32;20002;-68
2022/08/07 08:54:29;;;;;;;;;;;;;;;34.71;23.56;101814.06;3953059;32;15722349;-68
2022/08/07 08:56:56;;;;;;;;;;;;;;;34.71;23.56;101814.06;4430178;32;19953;-69
2022/08/07 08:59:28;;;;;;;;;;;;;;;35.37;22.20;101812.53;4428167;32;19962;-69
2022/08/07 09:02:13;;;;;;;;;;;;;;;36.02;21.73;101817.22;4430936;32;19994;-69
2022/08/07 09:07:18;;;;;;;;;;;;;;;35.99;21.20;101821.34;3952041;32;15723967;-68
2022/08/07 09:09:53;;;;;;;;;;;;;;;35.99;21.20;101821.34;4428942;32;20324;-69
2022/08/07 09:15:08;;;;;;;;;;;;;;;37.76;19.42;101834.31;3962862;31;15724707;-68
2022/08/07 09:17:40;;;;;;;;;;;;;;;37.76;19.42;101834.31;4441780;32;20005;-68
2022/08/07 09:20:25;;;;;;;;;;;;;;;36.56;20.46;101832.41;4439658;32;20012;-68
2022/08/07 09:28:18;;;;;;;;;;;;;;;36.95;19.92;101829.38;3952160;32;15725057;-69
2022/08/07 09:36:00;;;;;;;;;;;;;;;37.39;19.65;101827.41;3952251;32;15724437;-69
2022/08/07 09:38:37;;;;;;;;;;;;;;;37.39;19.65;101827.41;4432406;32;19976;-69
2022/08/07 09:41:23;;;;;;;;;;;;;;;37.07;19.91;101826.72;4431764;32;20086;-69
2022/08/07 09:43:55;;;;;;;;;;;;;;;36.53;20.01;101816.00;4431638;32;19999;-69
2022/08/07 09:46:41;;;;;;;;;;;;;;;35.81;20.84;101805.03;4431687;32;20004;-69
2022/08/07 09:49:27;;;;;;;;;;;;;;;36.02;20.84;101808.44;4431488;32;19957;-69
2022/08/07 09:52:12;;;;;;;;;;;;;;;34.99;21.44;101808.06;4430728;32;19957;-69
2022/08/07 09:54:40;;;;;;;;;;;;;;;35.54;20.87;101794.34;4433583;32;20440;-69
2022/08/07 10:00:01;;;;;;;;;;;;;;;35.36;21.44;101802.19;3950910;32;15723827;-67
2022/08/07 10:02:41;;;;;;;;;;;;;;;35.36;21.44;101802.19;4422196;32;20391;-69
2022/08/07 10:15:52;;;;;;;;;;;;;;;37.39;19.67;101814.91;3963170;31;15715426;-68
2022/08/07 10:18:38;;;;;;;;;;;;;;;37.39;19.67;101814.91;4431879;32;20031;-68
2022/08/07 10:21:14;;;;;;;;;;;;;;;38.08;18.86;101798.03;4431200;32;19965;-68
2022/08/07 10:23:59;;;;;;;;;;;;;;;38.34;18.63;101797.28;4431866;32;19954;-69
2022/08/07 10:29:19;;;;;;;;;;;;;;;38.75;18.50;101802.16;3952397;32;15723461;-69
2022/08/07 10:34:40;;;;;;;;;;;;;;;38.24;18.63;101794.28;3960107;31;15716612;-68
2022/08/07 10:37:23;;;;;;;;;;;;;;;38.24;18.63;101794.28;4442882;32;19954;-67
2022/08/07 10:42:48;;;;;;;;;;;;;;;37.93;18.87;101790.19;3970436;32;15723614;-69
2022/08/07 10:45:33;;;;;;;;;;;;;;;37.93;18.87;101790.19;4447145;32;20427;-69
2022/08/07 10:48:11;;;;;;;;;;;;;;;38.10;18.62;101784.31;4446261;32;19996;-69
2022/08/07 10:50:46;;;;;;;;;;;;;;;38.82;18.06;101790.25;4441681;32;19992;-69
2022/08/07 10:58:46;;;;;;;;;;;;;;;38.35;18.11;101790.81;3952324;32;15722570;-68
2022/08/07 11:06:49;;;;;;;;;;;;;;;39.43;17.86;101764.25;3951480;32;15724484;-69
2022/08/07 11:09:21;;;;;;;;;;;;;;;39.43;17.86;101764.25;4433777;32;20416;-69
2022/08/07 11:11:52;;;;;;;;;;;;;;;37.77;19.59;101765.31;4437731;32;19945;-69
2022/08/07 11:14:36;;;;;;;;;;;;;;;37.83;19.63;101762.91;4434457;32;19937;-69
2022/08/07 11:17:10;;;;;;;;;;;;;;;38.27;19.07;101760.72;4434859;32;20206;-69
2022/08/07 11:19:38;;;;;;;;;;;;;;;38.19;18.92;101771.03;4433632;32;19996;-69
2022/08/07 11:22:25;;;;;;;;;;;;;;;38.43;18.64;101764.97;4434434;32;20374;-68
2022/08/07 11:27:39;;;;;;;;;;;;;;;39.21;17.26;101762.50;3950987;32;15724619;-69
2022/08/07 11:30:05;;;;;;;;;;;;;;;39.21;17.26;101762.50;4429725;32;20365;-68
2022/08/07 11:35:18;;;;;;;;;;;;;;;41.18;15.65;101750.69;3953481;32;15724596;-69
2022/08/07 11:43:03;;;;;;;;;;;;;;;40.70;16.14;101742.09;4455113;31;19996;-69
2022/08/07 11:56:05;;;;;;;;;;;;;;;39.80;17.01;101752.25;3951672;32;15726483;-69
2022/08/07 11:58:48;;;;;;;;;;;;;;;39.80;17.01;101752.25;4435270;32;19957;-69
2022/08/07 12:01:34;;;;;;;;;;;;;;;39.27;17.27;101744.50;4433329;32;20033;-68
2022/08/07 12:06:56;;;;;;;;;;;;;;;39.91;16.79;101745.78;3961887;31;15719728;-68
2022/08/07 12:09:24;;;;;;;;;;;;;;;39.91;16.79;101745.78;4441880;32;19954;-68
2022/08/07 12:14:28;;;;;;;;;;;;;;;40.37;16.28;101755.13;3951585;32;15732586;-69
2022/08/07 12:17:11;;;;;;;;;;;;;;;40.37;16.28;101755.13;4427777;32;19965;-69
2022/08/07 12:19:49;;;;;;;;;;;;;;;40.57;15.80;101745.56;4427951;32;19985;-69
2022/08/07 12:22:36;;;;;;;;;;;;;;;41.63;14.93;101743.50;4427339;32;20048;-69
2022/08/07 12:27:54;;;;;;;;;;;;;;;42.13;14.49;101746.09;4427363;32;20007;-68
2022/08/07 12:30:22;;;;;;;;;;;;;;;41.72;14.86;101756.66;4428615;32;19976;-67
2022/08/07 12:32:57;;;;;;;;;;;;;;;41.73;14.86;101753.06;4428346;32;20034;-68
2022/08/07 12:35:25;;;;;;;;;;;;;;;40.13;16.10;101732.66;4424973;32;20031;-68
2022/08/07 12:37:52;;;;;;;;;;;;;;;40.42;15.98;101742.19;4425487;32;20004;-68
2022/08/07 12:40:20;;;;;;;;;;;;;;;40.66;15.55;101741.81;4427648;32;20102;-68
2022/08/07 12:42:46;;;;;;;;;;;;;;;40.35;15.65;101746.91;4425670;32;20004;-68
2022/08/07 12:45:15;;;;;;;;;;;;;;;41.36;14.95;101752.75;4427064;32;20001;-68
2022/08/07 12:48:01;;;;;;;;;;;;;;;41.14;14.96;101757.06;4427823;32;20302;-68
2022/08/07 12:50:47;;;;;;;;;;;;;;;40.40;15.75;101750.94;4424945;32;19993;-68
2022/08/07 12:53:32;;;;;;;;;;;;;;;41.02;15.22;101750.31;4429320;32;20281;-68
2022/08/07 12:56:18;;;;;;;;;;;;;;;41.40;14.97;101750.06;4425819;32;20004;-68
2022/08/07 12:58:45;;;;;;;;;;;;;;;41.67;14.86;101740.81;4429027;32;20355;-69
2022/08/07 13:04:09;;;;;;;;;;;;;;;42.31;14.54;101742.19;3950036;32;15755387;-69
2022/08/07 13:06:44;;;;;;;;;;;;;;;42.31;14.54;101742.19;4424863;32;20028;-69
2022/08/07 13:09:21;;;;;;;;;;;;;;;41.35;15.16;101739.34;4430003;32;20304;-69
2022/08/07 13:11:59;;;;;;;;;;;;;;;42.65;14.26;101735.50;4426642;32;20019;-69
2022/08/07 13:14:33;;;;;;;;;;;;;;;42.72;14.24;101733.72;4430101;32;20020;-69
2022/08/07 13:17:19;;;;;;;;;;;;;;;41.93;14.90;101730.00;4427793;32;20336;-69
2022/08/07 13:19:59;;;;;;;;;;;;;;;42.21;14.46;101732.59;4426491;32;20001;-69
2022/08/07 13:22:29;;;;;;;;;;;;;;;43.60;13.67;101733.28;4431331;32;20020;-69
2022/08/07 13:24:59;;;;;;;;;;;;;;;43.73;13.42;101725.88;4413763;32;19993;-69
2022/08/07 13:27:30;;;;;;;;;;;;;;;42.65;14.22;101714.78;4428055;32;20000;-69
2022/08/07 13:30:05;;;;;;;;;;;;;;;42.84;14.21;101720.44;4426740;32;20011;-69
2022/08/07 13:32:37;;;;;;;;;;;;;;;42.51;14.46;101719.78;4427969;32;19982;-69
2022/08/07 13:35:23;;;;;;;;;;;;;;;42.76;14.33;101704.37;4424533;32;20007;-69
2022/08/07 13:38:08;;;;;;;;;;;;;;;42.95;14.09;101718.88;4424488;32;19956;-69
2022/08/07 13:40:41;;;;;;;;;;;;;;;42.35;14.58;101721.72;4424167;32;19997;-69
2022/08/07 13:43:10;;;;;;;;;;;;;;;41.77;14.85;101711.91;4428701;32;20006;-69
2022/08/07 13:45:39;;;;;;;;;;;;;;;41.62;15.09;101711.63;4428233;32;20224;-69
2022/08/07 13:48:05;;;;;;;;;;;;;;;42.33;14.67;101712.72;4426759;32;20340;-68
2022/08/07 13:50:31;;;;;;;;;;;;;;;42.44;14.53;101711.19;4425415;32;21067;-68
2022/08/07 13:52:58;;;;;;;;;;;;;;;42.05;14.90;101716.00;4429585;32;20421;-68
2022/08/07 13:55:24;;;;;;;;;;;;;;;42.03;14.96;101710.75;4427129;32;20616;-68
2022/08/07 13:57:52;;;;;;;;;;;;;;;41.74;15.23;101716.16;4427079;32;19968;-68
2022/08/07 14:00:17;;;;;;;;;;;;;;;41.15;15.79;101717.28;4428795;32;19989;-68
2022/08/07 14:02:46;;;;;;;;;;;;;;;42.60;14.75;101715.16;4427391;32;19976;-68
2022/08/07 14:05:13;;;;;;;;;;;;;;;43.52;13.96;101723.16;4428846;32;19958;-68
2022/08/07 14:10:16;;;;;;;;;;;;;;;45.17;12.62;101716.25;3952098;32;15722468;-68
2022/08/07 14:12:46;;;;;;;;;;;;;;;45.17;12.62;101716.25;4427102;32;19997;-69
2022/08/07 14:15:31;;;;;;;;;;;;;;;45.47;12.25;101705.16;4429223;32;19949;-69
2022/08/07 14:18:02;;;;;;;;;;;;;;;44.76;12.77;101709.56;4429531;32;19958;-69
2022/08/07 14:20:29;;;;;;;;;;;;;;;45.23;12.45;101709.84;4428200;32;20044;-69
2022/08/07 14:23:02;;;;;;;;;;;;;;;45.75;12.18;101712.56;4427559;32;19989;-69
2022/08/07 14:25:31;;;;;;;;;;;;;;;45.75;12.18;101713.34;4427761;32;20477;-69
2022/08/07 14:27:56;;;;;;;;;;;;;;;45.65;12.22;101712.81;4431672;32;20379;-69
2022/08/07 14:30:22;;;;;;;;;;;;;;;46.61;11.69;101707.09;4426247;32;19957;-69